createdAt,value
2019-05-18T00:02:46.385Z,97114.80
2019-05-18T00:07:47.254Z,97120.69
2019-05-18T00:12:48.255Z,97120.45
2019-05-18T00:17:49.249Z,97117.11
2019-05-18T00:22:50.125Z,97118.41
2019-05-18T00:27:51.037Z,97116.62
2019-05-18T00:32:51.904Z,97109.70
2019-05-18T00:37:52.861Z,97110.71
2019-05-18T00:42:53.684Z,97111.22
2019-05-18T00:47:54.565Z,97110.26
2019-05-18T00:52:55.493Z,97104.14
2019-05-18T00:57:56.467Z,97110.89
2019-05-18T01:02:57.372Z,97112.68
2019-05-18T01:07:58.339Z,97115.16
2019-05-18T01:12:59.245Z,97113.77
2019-05-18T01:18:02.363Z,97108.12
2019-05-18T01:23:03.062Z,97107.36
2019-05-18T01:28:04.242Z,97103.24
2019-05-18T01:33:05.255Z,97097.97
2019-05-18T01:38:06.355Z,97093.42
2019-05-18T01:43:07.249Z,97089.80
2019-05-18T01:48:14.236Z,97084.98
2019-05-18T01:53:10.942Z,97083.98
2019-05-18T01:58:11.833Z,97086.98
2019-05-18T02:03:12.738Z,97079.29
2019-05-18T02:08:13.621Z,97077.16
2019-05-18T02:13:14.522Z,97080.79
2019-05-18T02:18:28.309Z,97073.38
2019-05-18T02:23:18.262Z,97064.63
2019-05-18T02:28:19.260Z,97062.67
2019-05-18T02:33:20.166Z,97059.64
2019-05-18T02:38:21.257Z,97060.91
2019-05-18T02:43:22.205Z,97062.14
2019-05-18T02:48:23.095Z,97053.27
2019-05-18T02:53:23.935Z,97056.53
2019-05-18T02:58:24.856Z,97064.06
2019-05-18T03:03:25.847Z,97056.91
2019-05-18T03:08:26.851Z,97061.52
2019-05-18T03:13:27.904Z,97065.84
2019-05-18T03:18:28.799Z,97073.23
2019-05-18T03:23:29.779Z,97061.94
2019-05-18T03:28:30.680Z,97059.26
2019-05-18T03:33:31.657Z,97053.66
2019-05-18T03:38:32.542Z,97055.16
2019-05-18T03:43:33.542Z,97049.15
2019-05-18T03:48:34.421Z,97058.90
2019-05-18T03:53:35.287Z,97060.88
2019-05-18T03:58:36.164Z,97069.86
2019-05-18T04:03:37.047Z,97074.20
2019-05-18T04:08:37.909Z,97076.66
2019-05-18T04:13:38.792Z,97075.98
2019-05-18T04:18:39.675Z,97081.95
2019-05-18T04:23:40.543Z,97083.89
2019-05-18T04:28:41.436Z,97082.23
2019-05-18T04:33:42.459Z,97091.91
2019-05-18T04:38:43.324Z,97089.58
2019-05-18T04:43:44.362Z,97089.46
2019-05-18T04:48:45.218Z,97086.12
2019-05-18T04:53:46.086Z,97096.48
2019-05-18T04:58:47.067Z,97096.87
2019-05-18T05:03:48.064Z,97102.85
2019-05-18T05:08:48.948Z,97096.25
2019-05-18T05:13:49.904Z,97091.65
2019-05-18T05:18:51.091Z,97094.71
2019-05-18T05:23:52.502Z,97099.17
2019-05-18T05:28:53.941Z,97096.09
2019-05-18T05:33:54.812Z,97102.00
2019-05-18T05:38:55.693Z,97096.02
2019-05-18T05:43:56.571Z,97096.45
2019-05-18T05:48:58.435Z,97089.20
2019-05-18T05:53:59.346Z,97090.61
2019-05-18T05:59:00.411Z,97090.61
2019-05-18T06:04:01.303Z,97098.41
2019-05-18T06:09:05.087Z,97100.45
2019-05-18T06:14:06.172Z,97106.31
2019-05-18T06:19:07.334Z,97106.31
2019-05-18T06:24:08.322Z,97103.31
2019-05-18T06:29:09.196Z,97108.72
2019-05-18T06:34:10.072Z,97101.66
2019-05-18T06:39:10.947Z,97101.68
2019-05-18T06:44:11.845Z,97110.72
2019-05-18T06:49:12.730Z,97103.67
2019-05-18T06:54:13.601Z,97108.96
2019-05-18T06:59:16.473Z,97100.54
2019-05-18T07:04:17.630Z,97102.20
2019-05-18T07:09:18.460Z,97094.98
2019-05-18T07:14:25.632Z,97101.59
2019-05-18T07:19:22.196Z,97099.16
2019-05-18T07:24:23.083Z,97104.41
2019-05-18T07:29:24.060Z,97103.00
2019-05-18T07:34:26.717Z,97104.55
2019-05-18T07:39:27.763Z,97103.91
2019-05-18T07:44:28.634Z,97105.83
2019-05-18T07:49:29.506Z,97106.37
2019-05-18T07:54:30.375Z,97105.73
2019-05-18T07:59:31.248Z,97102.28
2019-05-18T08:04:32.124Z,97098.34
2019-05-18T08:09:33.008Z,97096.52
2019-05-18T08:14:33.868Z,97095.80
2019-05-18T08:19:34.767Z,97095.05
2019-05-18T08:24:35.651Z,97096.74
2019-05-18T08:29:36.524Z,97097.87
2019-05-18T08:34:37.397Z,97093.45
2019-05-18T08:39:38.295Z,97088.53
2019-05-18T08:44:39.157Z,97075.78
2019-05-18T08:49:40.057Z,97080.83
2019-05-18T08:54:40.910Z,97078.17
2019-05-18T08:59:41.811Z,97072.46
2019-05-18T09:04:42.652Z,97075.31
2019-05-18T09:09:43.532Z,97079.67
2019-05-18T09:14:44.429Z,97078.44
2019-05-18T09:19:45.505Z,97077.59
2019-05-18T09:24:46.474Z,97082.60
2019-05-18T09:29:47.356Z,97076.94
2019-05-18T09:34:48.281Z,97077.08
2019-05-18T09:39:49.258Z,97068.55
2019-05-18T09:44:50.113Z,97065.55
2019-05-18T09:49:51.151Z,97064.86
2019-05-18T09:54:52.017Z,97066.02
2019-05-18T09:59:52.883Z,97064.45
2019-05-18T10:04:53.807Z,97077.06
2019-05-18T10:09:54.677Z,97066.18
2019-05-18T10:14:55.579Z,97057.91
2019-05-18T10:19:56.428Z,97060.58
2019-05-18T10:24:57.305Z,97047.27
2019-05-18T10:29:58.952Z,97043.63
2019-05-18T10:34:59.926Z,97045.38
2019-05-18T10:40:04.976Z,97041.91
2019-05-18T10:45:06.646Z,97039.48
2019-05-18T10:50:07.926Z,97041.93
2019-05-18T10:55:09.211Z,97036.31
2019-05-18T11:00:10.548Z,97032.43
2019-05-18T11:05:15.123Z,97025.61
2019-05-18T11:10:18.727Z,97029.17
2019-05-18T11:15:21.831Z,97022.14
2019-05-18T11:20:23.134Z,97012.31
2019-05-18T11:25:24.098Z,97016.20
2019-05-18T11:30:25.294Z,97011.17
2019-05-18T12:05:42.772Z,96998.70
2019-05-18T12:10:43.744Z,97001.12
2019-05-18T12:15:48.023Z,96998.93
2019-05-18T12:20:49.104Z,96994.75
2019-05-18T12:25:50.802Z,96982.01
2019-05-18T12:30:52.036Z,96985.02
2019-05-18T12:35:53.043Z,96975.22
2019-05-18T12:40:53.888Z,96972.18
2019-05-18T12:45:54.880Z,96966.55
2019-05-18T12:50:57.957Z,96966.72
2019-05-18T12:55:58.831Z,96958.75
2019-05-18T13:00:59.708Z,96946.67
2019-05-18T13:06:00.568Z,96942.00
2019-05-18T13:11:01.435Z,96933.66
2019-05-18T13:16:02.444Z,96929.08
2019-05-18T13:21:03.420Z,96922.26
2019-05-18T13:26:04.503Z,96912.57
2019-05-18T13:31:05.384Z,96911.01
2019-05-18T13:36:06.264Z,96909.78
2019-05-18T13:41:07.234Z,96898.48
2019-05-18T13:46:08.234Z,96894.53
2019-05-18T13:51:09.079Z,96891.88
2019-05-18T13:56:15.610Z,96892.30
2019-05-18T14:01:20.545Z,96893.38
2019-05-18T14:06:27.814Z,96891.19
2019-05-18T14:11:36.667Z,96883.61
2019-05-18T14:16:42.474Z,96890.60
2019-05-18T14:21:50.115Z,96877.73
2019-05-18T14:26:51.990Z,96878.42
2019-05-18T14:31:52.995Z,96870.77
2019-05-18T14:36:59.507Z,96868.36
2019-05-18T14:42:00.448Z,96873.08
2019-05-18T14:47:01.316Z,96866.70
2019-05-18T14:52:02.285Z,96859.16
2019-05-18T14:57:03.296Z,96860.97
2019-05-18T15:02:04.297Z,96849.19
2019-05-18T15:07:05.185Z,96856.22
2019-05-18T15:12:06.269Z,96859.13
2019-05-18T15:17:07.264Z,96864.05
2019-05-18T15:22:08.135Z,96862.51
2019-05-18T15:27:09.110Z,96857.54
2019-05-18T15:32:10.085Z,96863.33
2019-05-18T15:37:11.103Z,96861.44
2019-05-18T15:42:12.172Z,96853.58
2019-05-18T15:47:13.046Z,96851.11
2019-05-18T15:52:13.920Z,96848.57
2019-05-18T15:57:14.782Z,96845.82
2019-05-18T16:02:15.756Z,96843.47
2019-05-18T16:07:16.708Z,96849.41
2019-05-18T16:12:17.564Z,96850.36
2019-05-18T16:17:18.439Z,96840.09
2019-05-18T16:22:19.332Z,96839.15
2019-05-18T16:27:20.199Z,96842.62
2019-05-18T16:32:21.178Z,96840.86
2019-05-18T16:37:22.076Z,96844.45
2019-05-18T16:42:22.944Z,96841.11
2019-05-18T16:47:23.821Z,96841.22
2019-05-18T16:52:24.817Z,96840.48
2019-05-18T16:57:25.668Z,96844.28
2019-05-18T17:02:31.643Z,96846.56
2019-05-18T17:07:29.523Z,96845.41
2019-05-18T17:12:30.495Z,96854.47
2019-05-18T17:17:34.870Z,96852.27
2019-05-18T17:22:34.184Z,96855.02
2019-05-18T17:27:35.064Z,96852.97
2019-05-18T17:32:35.948Z,96862.03
2019-05-18T17:37:36.823Z,96858.55
2019-05-18T17:42:37.705Z,96863.51
2019-05-18T17:47:38.572Z,96858.92
2019-05-18T17:52:39.556Z,96860.23
2019-05-18T17:57:40.538Z,96861.25
2019-05-18T18:02:41.517Z,96863.82
2019-05-18T18:07:42.390Z,96869.03
2019-05-18T18:12:43.259Z,96869.20
2019-05-18T18:17:44.135Z,96861.42
2019-05-18T18:22:45.042Z,96862.48
2019-05-18T18:27:45.900Z,96867.21
2019-05-18T18:32:46.767Z,96866.84
2019-05-18T18:37:47.637Z,96872.08
2019-05-18T18:42:48.546Z,96869.59
2019-05-18T18:47:49.428Z,96875.73
2019-05-18T18:52:50.426Z,96883.45
2019-05-18T18:57:51.300Z,96888.97
2019-05-18T19:02:52.292Z,96888.30
2019-05-18T19:07:53.167Z,96901.59
2019-05-18T19:12:54.045Z,96917.09
2019-05-18T19:17:54.917Z,96926.66
2019-05-18T19:22:56.372Z,96931.70
2019-05-18T19:27:59.646Z,96925.93
2019-05-18T19:33:02.467Z,96939.77
2019-05-18T19:38:03.523Z,96938.05
2019-05-18T19:43:04.383Z,96942.81
2019-05-18T19:48:05.263Z,96940.38
2019-05-18T19:53:06.165Z,96945.11
2019-05-18T19:58:09.202Z,96938.98
2019-05-18T20:03:09.948Z,96956.03
2019-05-18T20:08:10.810Z,96951.66
2019-05-18T20:13:11.693Z,96952.23
2019-05-18T20:18:12.587Z,96954.09
